sensor_id;sensor_type;location;lat;lon;timestamp;temperature;humidity
56184;DHT22;42086;53.170;6.980;2022-11-04T00:01:57;12.00;99.90
56184;DHT22;42086;53.170;6.980;2022-11-04T00:04:25;12.00;99.90
56184;DHT22;42086;53.170;6.980;2022-11-04T00:06:51;12.00;99.90
56184;DHT22;42086;53.170;6.980;2022-11-04T00:09:22;12.00;99.90
56184;DHT22;42086;53.170;6.980;2022-11-04T00:11:49;12.00;99.90
56184;DHT22;42086;53.170;6.980;2022-11-04T00:14:34;12.00;99.90
56184;DHT22;42086;53.170;6.980;2022-11-04T00:17:03;12.00;99.90
56184;DHT22;42086;53.170;6.980;2022-11-04T00:19:44;12.10;99.90
56184;DHT22;42086;53.170;6.980;2022-11-04T00:22:28;12.10;99.90
56184;DHT22;42086;53.170;6.980;2022-11-04T00:25:13;12.10;99.90
56184;DHT22;42086;53.170;6.980;2022-11-04T00:28:02;12.10;99.90
56184;DHT22;42086;53.170;6.980;2022-11-04T00:30:47;12.10;99.90
56184;DHT22;42086;53.170;6.980;2022-11-04T00:33:12;12.10;99.90
56184;DHT22;42086;53.170;6.980;2022-11-04T00:35:52;12.10;99.90
56184;DHT22;42086;53.170;6.980;2022-11-04T00:38:18;12.10;99.90
56184;DHT22;42086;53.170;6.980;2022-11-04T00:40:44;12.00;99.90
56184;DHT22;42086;53.170;6.980;2022-11-04T00:43:10;12.00;99.90
56184;DHT22;42086;53.170;6.980;2022-11-04T00:45:36;12.00;99.90
56184;DHT22;42086;53.170;6.980;2022-11-04T00:48:02;12.00;99.90
56184;DHT22;42086;53.170;6.980;2022-11-04T00:50:27;11.90;99.90
56184;DHT22;42086;53.170;6.980;2022-11-04T00:53:00;11.90;99.90
56184;DHT22;42086;53.170;6.980;2022-11-04T00:55:26;11.90;99.90
56184;DHT22;42086;53.170;6.980;2022-11-04T00:57:53;11.90;99.90
56184;DHT22;42086;53.170;6.980;2022-11-04T01:00:19;11.80;99.90
56184;DHT22;42086;53.170;6.980;2022-11-04T01:02:45;11.80;99.90
56184;DHT22;42086;53.170;6.980;2022-11-04T01:05:11;11.90;99.90
56184;DHT22;42086;53.170;6.980;2022-11-04T01:07:37;11.90;99.90
56184;DHT22;42086;53.170;6.980;2022-11-04T01:10:04;11.90;99.90
56184;DHT22;42086;53.170;6.980;2022-11-04T01:12:30;11.90;99.90
56184;DHT22;42086;53.170;6.980;2022-11-04T01:14:56;11.90;99.90
56184;DHT22;42086;53.170;6.980;2022-11-04T01:17:22;11.90;99.90
56184;DHT22;42086;53.170;6.980;2022-11-04T01:19:47;11.80;99.90
56184;DHT22;42086;53.170;6.980;2022-11-04T01:22:13;11.70;99.90
56184;DHT22;42086;53.170;6.980;2022-11-04T01:24:39;11.70;99.90
56184;DHT22;42086;53.170;6.980;2022-11-04T01:27:04;11.70;99.90
56184;DHT22;42086;53.170;6.980;2022-11-04T01:29:30;11.70;99.90
56184;DHT22;42086;53.170;6.980;2022-11-04T01:31:56;11.60;99.90
56184;DHT22;42086;53.170;6.980;2022-11-04T01:34:21;11.60;99.90
56184;DHT22;42086;53.170;6.980;2022-11-04T01:36:47;11.50;99.90
56184;DHT22;42086;53.170;6.980;2022-11-04T01:39:13;11.50;99.90
56184;DHT22;42086;53.170;6.980;2022-11-04T01:41:39;11.40;99.90
56184;DHT22;42086;53.170;6.980;2022-11-04T01:47:17;11.30;99.90
56184;DHT22;42086;53.170;6.980;2022-11-04T01:49:47;11.30;99.90
56184;DHT22;42086;53.170;6.980;2022-11-04T01:52:17;11.20;99.90
56184;DHT22;42086;53.170;6.980;2022-11-04T01:54:47;11.20;99.90
56184;DHT22;42086;53.170;6.980;2022-11-04T01:57:18;11.20;99.90
56184;DHT22;42086;53.170;6.980;2022-11-04T01:59:44;11.20;99.90
56184;DHT22;42086;53.170;6.980;2022-11-04T02:02:10;11.20;99.90
56184;DHT22;42086;53.170;6.980;2022-11-04T02:04:37;11.10;99.90
56184;DHT22;42086;53.170;6.980;2022-11-04T02:07:06;11.10;99.90
56184;DHT22;42086;53.170;6.980;2022-11-04T02:09:33;11.10;99.90
56184;DHT22;42086;53.170;6.980;2022-11-04T02:12:00;11.20;99.90
56184;DHT22;42086;53.170;6.980;2022-11-04T02:14:46;11.10;99.90
56184;DHT22;42086;53.170;6.980;2022-11-04T02:22:54;11.20;99.90
56184;DHT22;42086;53.170;6.980;2022-11-04T02:36:54;11.10;99.90
56184;DHT22;42086;53.170;6.980;2022-11-04T02:39:34;11.10;99.90
56184;DHT22;42086;53.170;6.980;2022-11-04T02:42:25;11.10;99.90
56184;DHT22;42086;53.170;6.980;2022-11-04T02:45:12;11.10;99.90
56184;DHT22;42086;53.170;6.980;2022-11-04T02:47:44;11.10;99.90
56184;DHT22;42086;53.170;6.980;2022-11-04T02:50:22;11.10;99.90
56184;DHT22;42086;53.170;6.980;2022-11-04T02:53:19;11.10;99.90
56184;DHT22;42086;53.170;6.980;2022-11-04T02:55:49;11.10;99.90
56184;DHT22;42086;53.170;6.980;2022-11-04T02:58:28;11.10;99.90
56184;DHT22;42086;53.170;6.980;2022-11-04T03:00:56;11.10;99.90
56184;DHT22;42086;53.170;6.980;2022-11-04T03:03:25;11.10;99.90
56184;DHT22;42086;53.170;6.980;2022-11-04T03:05:54;11.10;99.90
56184;DHT22;42086;53.170;6.980;2022-11-04T03:08:32;11.10;99.90
56184;DHT22;42086;53.170;6.980;2022-11-04T03:11:09;11.20;99.90
56184;DHT22;42086;53.170;6.980;2022-11-04T03:13:49;11.20;99.90
56184;DHT22;42086;53.170;6.980;2022-11-04T03:16:38;11.20;99.90
56184;DHT22;42086;53.170;6.980;2022-11-04T03:22:03;11.20;99.90
56184;DHT22;42086;53.170;6.980;2022-11-04T03:24:30;11.10;99.90
56184;DHT22;42086;53.170;6.980;2022-11-04T03:30:01;11.20;99.90
56184;DHT22;42086;53.170;6.980;2022-11-04T03:35:13;11.20;99.90
56184;DHT22;42086;53.170;6.980;2022-11-04T03:37:41;11.20;99.90
56184;DHT22;42086;53.170;6.980;2022-11-04T03:40:08;11.20;99.90
56184;DHT22;42086;53.170;6.980;2022-11-04T03:42:40;11.20;99.90
56184;DHT22;42086;53.170;6.980;2022-11-04T03:45:09;11.20;99.90
56184;DHT22;42086;53.170;6.980;2022-11-04T03:47:36;11.20;99.90
56184;DHT22;42086;53.170;6.980;2022-11-04T03:50:11;11.20;99.90
56184;DHT22;42086;53.170;6.980;2022-11-04T03:52:38;11.30;99.90
56184;DHT22;42086;53.170;6.980;2022-11-04T03:55:06;11.10;99.90
56184;DHT22;42086;53.170;6.980;2022-11-04T03:57:56;11.20;99.90
56184;DHT22;42086;53.170;6.980;2022-11-04T04:00:27;11.10;99.90
56184;DHT22;42086;53.170;6.980;2022-11-04T04:05:36;11.10;99.90
56184;DHT22;42086;53.170;6.980;2022-11-04T04:16:28;11.00;99.90
56184;DHT22;42086;53.170;6.980;2022-11-04T04:19:19;11.00;99.90
56184;DHT22;42086;53.170;6.980;2022-11-04T04:22:05;10.90;99.90
56184;DHT22;42086;53.170;6.980;2022-11-04T04:24:35;11.00;99.90
56184;DHT22;42086;53.170;6.980;2022-11-04T04:27:21;11.00;99.90
56184;DHT22;42086;53.170;6.980;2022-11-04T04:29:59;10.90;99.90
56184;DHT22;42086;53.170;6.980;2022-11-04T04:32:27;11.00;99.90
56184;DHT22;42086;53.170;6.980;2022-11-04T04:34:54;11.00;99.90
56184;DHT22;42086;53.170;6.980;2022-11-04T04:37:41;11.00;99.90
56184;DHT22;42086;53.170;6.980;2022-11-04T04:40:11;11.00;99.90
56184;DHT22;42086;53.170;6.980;2022-11-04T04:42:56;11.00;99.90
56184;DHT22;42086;53.170;6.980;2022-11-04T04:45:42;11.00;99.90
56184;DHT22;42086;53.170;6.980;2022-11-04T04:48:12;11.00;99.90
56184;DHT22;42086;53.170;6.980;2022-11-04T04:50:45;11.10;99.90
56184;DHT22;42086;53.170;6.980;2022-11-04T04:53:13;11.10;99.90
56184;DHT22;42086;53.170;6.980;2022-11-04T04:55:39;11.10;99.90
56184;DHT22;42086;53.170;6.980;2022-11-04T04:58:04;11.10;99.90
56184;DHT22;42086;53.170;6.980;2022-11-04T05:00:30;11.00;99.90
56184;DHT22;42086;53.170;6.980;2022-11-04T05:02:58;11.00;99.90
56184;DHT22;42086;53.170;6.980;2022-11-04T05:05:24;11.00;99.90
56184;DHT22;42086;53.170;6.980;2022-11-04T05:07:50;11.00;99.90
56184;DHT22;42086;53.170;6.980;2022-11-04T05:10:17;10.90;99.90
56184;DHT22;42086;53.170;6.980;2022-11-04T05:12:43;10.80;99.90
56184;DHT22;42086;53.170;6.980;2022-11-04T05:15:27;10.80;99.90
56184;DHT22;42086;53.170;6.980;2022-11-04T05:17:58;10.80;99.90
56184;DHT22;42086;53.170;6.980;2022-11-04T05:20:25;10.80;99.90
56184;DHT22;42086;53.170;6.980;2022-11-04T05:22:51;10.80;99.90
56184;DHT22;42086;53.170;6.980;2022-11-04T05:25:18;10.80;99.90
56184;DHT22;42086;53.170;6.980;2022-11-04T05:27:44;10.70;99.90
56184;DHT22;42086;53.170;6.980;2022-11-04T05:30:10;10.70;99.90
56184;DHT22;42086;53.170;6.980;2022-11-04T05:32:35;10.70;99.90
56184;DHT22;42086;53.170;6.980;2022-11-04T05:35:01;10.70;99.90
56184;DHT22;42086;53.170;6.980;2022-11-04T05:37:27;10.70;99.90
56184;DHT22;42086;53.170;6.980;2022-11-04T05:39:53;10.60;99.90
56184;DHT22;42086;53.170;6.980;2022-11-04T05:42:18;10.60;99.90
56184;DHT22;42086;53.170;6.980;2022-11-04T05:44:44;10.50;99.90
56184;DHT22;42086;53.170;6.980;2022-11-04T05:47:10;10.40;99.90
56184;DHT22;42086;53.170;6.980;2022-11-04T05:49:35;10.40;99.90
56184;DHT22;42086;53.170;6.980;2022-11-04T05:52:01;10.30;99.90
56184;DHT22;42086;53.170;6.980;2022-11-04T05:54:27;10.30;99.90
56184;DHT22;42086;53.170;6.980;2022-11-04T05:56:53;10.20;99.90
56184;DHT22;42086;53.170;6.980;2022-11-04T05:59:18;10.20;99.90
56184;DHT22;42086;53.170;6.980;2022-11-04T06:01:44;10.10;99.90
56184;DHT22;42086;53.170;6.980;2022-11-04T06:04:14;10.10;99.90
56184;DHT22;42086;53.170;6.980;2022-11-04T06:06:41;10.10;99.90
56184;DHT22;42086;53.170;6.980;2022-11-04T06:09:07;10.10;99.90
56184;DHT22;42086;53.170;6.980;2022-11-04T06:11:33;10.10;99.90
56184;DHT22;42086;53.170;6.980;2022-11-04T06:13:59;10.10;99.90
56184;DHT22;42086;53.170;6.980;2022-11-04T06:16:25;10.00;99.90
56184;DHT22;42086;53.170;6.980;2022-11-04T06:18:51;10.00;99.90
56184;DHT22;42086;53.170;6.980;2022-11-04T06:21:26;10.00;99.90
56184;DHT22;42086;53.170;6.980;2022-11-04T06:23:54;9.90;99.90
56184;DHT22;42086;53.170;6.980;2022-11-04T06:26:25;9.90;99.90
56184;DHT22;42086;53.170;6.980;2022-11-04T06:28:52;9.90;99.90
56184;DHT22;42086;53.170;6.980;2022-11-04T06:31:18;9.80;99.90
56184;DHT22;42086;53.170;6.980;2022-11-04T06:33:44;9.80;99.90
56184;DHT22;42086;53.170;6.980;2022-11-04T06:36:13;9.80;99.90
56184;DHT22;42086;53.170;6.980;2022-11-04T06:38:39;9.90;99.90
56184;DHT22;42086;53.170;6.980;2022-11-04T06:41:06;9.90;99.90
56184;DHT22;42086;53.170;6.980;2022-11-04T06:43:32;9.90;99.90
56184;DHT22;42086;53.170;6.980;2022-11-04T06:45:59;9.90;99.90
56184;DHT22;42086;53.170;6.980;2022-11-04T06:48:26;10.00;99.90
56184;DHT22;42086;53.170;6.980;2022-11-04T06:50:52;10.00;99.90
56184;DHT22;42086;53.170;6.980;2022-11-04T06:53:18;10.00;99.90
56184;DHT22;42086;53.170;6.980;2022-11-04T06:55:44;10.00;99.90
56184;DHT22;42086;53.170;6.980;2022-11-04T06:58:10;10.00;99.90
56184;DHT22;42086;53.170;6.980;2022-11-04T07:00:36;10.00;99.90
56184;DHT22;42086;53.170;6.980;2022-11-04T07:03:02;10.00;99.90
56184;DHT22;42086;53.170;6.980;2022-11-04T07:05:28;10.10;99.90
56184;DHT22;42086;53.170;6.980;2022-11-04T07:07:54;10.10;99.90
56184;DHT22;42086;53.170;6.980;2022-11-04T07:10:19;10.10;99.90
56184;DHT22;42086;53.170;6.980;2022-11-04T07:12:45;10.10;99.90
56184;DHT22;42086;53.170;6.980;2022-11-04T07:15:11;10.00;99.90
56184;DHT22;42086;53.170;6.980;2022-11-04T07:17:37;10.00;99.90
56184;DHT22;42086;53.170;6.980;2022-11-04T07:20:03;9.90;99.90
56184;DHT22;42086;53.170;6.980;2022-11-04T07:22:30;9.90;99.90
56184;DHT22;42086;53.170;6.980;2022-11-04T07:24:55;9.90;99.90
56184;DHT22;42086;53.170;6.980;2022-11-04T07:27:21;9.90;99.90
56184;DHT22;42086;53.170;6.980;2022-11-04T07:29:47;9.80;99.90
56184;DHT22;42086;53.170;6.980;2022-11-04T07:32:13;10.00;99.90
56184;DHT22;42086;53.170;6.980;2022-11-04T07:34:39;9.80;99.90
56184;DHT22;42086;53.170;6.980;2022-11-04T07:37:04;9.80;99.90
56184;DHT22;42086;53.170;6.980;2022-11-04T07:39:30;10.00;99.90
56184;DHT22;42086;53.170;6.980;2022-11-04T07:41:56;10.00;99.90
56184;DHT22;42086;53.170;6.980;2022-11-04T07:44:21;9.90;99.90
56184;DHT22;42086;53.170;6.980;2022-11-04T07:46:48;10.00;99.90
56184;DHT22;42086;53.170;6.980;2022-11-04T07:49:14;9.90;99.90
56184;DHT22;42086;53.170;6.980;2022-11-04T07:51:40;9.90;99.90
56184;DHT22;42086;53.170;6.980;2022-11-04T07:54:06;9.90;99.90
56184;DHT22;42086;53.170;6.980;2022-11-04T07:56:32;9.80;99.90
56184;DHT22;42086;53.170;6.980;2022-11-04T07:58:57;9.80;99.90
56184;DHT22;42086;53.170;6.980;2022-11-04T08:01:23;9.90;99.90
56184;DHT22;42086;53.170;6.980;2022-11-04T08:03:50;10.00;99.90
56184;DHT22;42086;53.170;6.980;2022-11-04T08:06:18;10.00;99.90
56184;DHT22;42086;53.170;6.980;2022-11-04T08:08:45;10.10;99.90
56184;DHT22;42086;53.170;6.980;2022-11-04T08:11:17;10.10;99.90
56184;DHT22;42086;53.170;6.980;2022-11-04T08:13:44;10.20;99.90
56184;DHT22;42086;53.170;6.980;2022-11-04T08:16:18;10.20;99.90
56184;DHT22;42086;53.170;6.980;2022-11-04T08:18:45;10.30;99.90
56184;DHT22;42086;53.170;6.980;2022-11-04T08:21:11;10.30;99.90
56184;DHT22;42086;53.170;6.980;2022-11-04T08:23:37;10.30;99.90
56184;DHT22;42086;53.170;6.980;2022-11-04T08:26:08;10.30;99.90
56184;DHT22;42086;53.170;6.980;2022-11-04T08:28:34;10.30;99.90
56184;DHT22;42086;53.170;6.980;2022-11-04T08:33:37;10.40;99.90
56184;DHT22;42086;53.170;6.980;2022-11-04T08:36:13;10.50;99.90
56184;DHT22;42086;53.170;6.980;2022-11-04T08:38:39;10.60;99.90
56184;DHT22;42086;53.170;6.980;2022-11-04T08:41:07;10.70;99.90
56184;DHT22;42086;53.170;6.980;2022-11-04T08:43:34;10.80;99.90
56184;DHT22;42086;53.170;6.980;2022-11-04T08:46:01;10.80;99.90
56184;DHT22;42086;53.170;6.980;2022-11-04T08:48:27;10.90;99.90
56184;DHT22;42086;53.170;6.980;2022-11-04T08:50:55;10.90;99.90
56184;DHT22;42086;53.170;6.980;2022-11-04T08:53:21;11.00;99.90
56184;DHT22;42086;53.170;6.980;2022-11-04T08:55:47;11.10;99.90
56184;DHT22;42086;53.170;6.980;2022-11-04T08:58:13;11.10;99.90
56184;DHT22;42086;53.170;6.980;2022-11-04T09:00:39;11.20;99.90
56184;DHT22;42086;53.170;6.980;2022-11-04T09:03:05;11.30;99.90
56184;DHT22;42086;53.170;6.980;2022-11-04T09:05:31;11.30;99.90
56184;DHT22;42086;53.170;6.980;2022-11-04T09:07:58;11.40;99.90
56184;DHT22;42086;53.170;6.980;2022-11-04T09:10:25;11.40;99.90
56184;DHT22;42086;53.170;6.980;2022-11-04T09:12:51;11.40;99.90
56184;DHT22;42086;53.170;6.980;2022-11-04T09:15:17;11.40;99.90
56184;DHT22;42086;53.170;6.980;2022-11-04T09:17:42;11.40;99.90
56184;DHT22;42086;53.170;6.980;2022-11-04T09:20:09;11.50;99.90
56184;DHT22;42086;53.170;6.980;2022-11-04T09:22:35;11.50;99.90
56184;DHT22;42086;53.170;6.980;2022-11-04T09:25:01;11.50;99.90
56184;DHT22;42086;53.170;6.980;2022-11-04T09:27:26;11.50;99.90
56184;DHT22;42086;53.170;6.980;2022-11-04T09:29:52;11.40;99.90
56184;DHT22;42086;53.170;6.980;2022-11-04T09:32:17;11.50;99.90
56184;DHT22;42086;53.170;6.980;2022-11-04T09:34:43;11.60;99.90
56184;DHT22;42086;53.170;6.980;2022-11-04T09:37:09;11.60;99.90
56184;DHT22;42086;53.170;6.980;2022-11-04T09:39:34;11.70;99.90
56184;DHT22;42086;53.170;6.980;2022-11-04T09:45:00;12.00;99.90
56184;DHT22;42086;53.170;6.980;2022-11-04T09:47:29;12.00;99.90
56184;DHT22;42086;53.170;6.980;2022-11-04T09:49:59;11.90;99.90
56184;DHT22;42086;53.170;6.980;2022-11-04T09:55:12;12.00;99.90
56184;DHT22;42086;53.170;6.980;2022-11-04T09:57:41;12.20;99.90
56184;DHT22;42086;53.170;6.980;2022-11-04T10:00:14;12.30;99.90
56184;DHT22;42086;53.170;6.980;2022-11-04T10:03:05;12.40;99.90
56184;DHT22;42086;53.170;6.980;2022-11-04T10:11:11;12.30;99.90
56184;DHT22;42086;53.170;6.980;2022-11-04T10:16:25;12.40;99.90
56184;DHT22;42086;53.170;6.980;2022-11-04T10:22:45;12.60;99.90
56184;DHT22;42086;53.170;6.980;2022-11-04T10:25:15;12.80;99.90
56184;DHT22;42086;53.170;6.980;2022-11-04T10:27:46;12.60;99.90
56184;DHT22;42086;53.170;6.980;2022-11-04T10:30:21;12.50;99.90
56184;DHT22;42086;53.170;6.980;2022-11-04T10:35:48;12.60;99.90
56184;DHT22;42086;53.170;6.980;2022-11-04T10:38:23;12.70;99.90
56184;DHT22;42086;53.170;6.980;2022-11-04T10:40:53;12.70;99.90
56184;DHT22;42086;53.170;6.980;2022-11-04T10:43:42;12.90;99.90
56184;DHT22;42086;53.170;6.980;2022-11-04T10:51:39;13.20;99.90
56184;DHT22;42086;53.170;6.980;2022-11-04T10:54:08;13.00;99.90
56184;DHT22;42086;53.170;6.980;2022-11-04T10:56:41;13.20;99.90
56184;DHT22;42086;53.170;6.980;2022-11-04T10:59:27;13.50;99.90
56184;DHT22;42086;53.170;6.980;2022-11-04T11:02:00;13.40;99.90
56184;DHT22;42086;53.170;6.980;2022-11-04T11:04:34;13.30;99.90
56184;DHT22;42086;53.170;6.980;2022-11-04T11:07:02;13.20;99.90
56184;DHT22;42086;53.170;6.980;2022-11-04T11:14:42;12.80;99.90
56184;DHT22;42086;53.170;6.980;2022-11-04T11:19:56;12.80;99.90
56184;DHT22;42086;53.170;6.980;2022-11-04T11:22:41;12.80;99.90
56184;DHT22;42086;53.170;6.980;2022-11-04T11:25:28;12.80;99.90
56184;DHT22;42086;53.170;6.980;2022-11-04T11:28:12;12.70;99.90
56184;DHT22;42086;53.170;6.980;2022-11-04T11:33:17;12.80;99.90
56184;DHT22;42086;53.170;6.980;2022-11-04T11:35:56;12.80;99.90
56184;DHT22;42086;53.170;6.980;2022-11-04T11:38:28;13.00;99.90
56184;DHT22;42086;53.170;6.980;2022-11-04T11:41:10;13.00;99.90
56184;DHT22;42086;53.170;6.980;2022-11-04T11:43:44;13.00;99.90
56184;DHT22;42086;53.170;6.980;2022-11-04T11:46:11;13.10;99.90
56184;DHT22;42086;53.170;6.980;2022-11-04T11:48:50;13.10;99.90
56184;DHT22;42086;53.170;6.980;2022-11-04T11:51:25;13.10;99.90
56184;DHT22;42086;53.170;6.980;2022-11-04T11:56:40;13.00;99.90
56184;DHT22;42086;53.170;6.980;2022-11-04T11:59:19;13.00;99.90
56184;DHT22;42086;53.170;6.980;2022-11-04T12:04:39;12.90;99.90
56184;DHT22;42086;53.170;6.980;2022-11-04T12:10:07;13.10;99.90
56184;DHT22;42086;53.170;6.980;2022-11-04T12:28:46;14.30;99.90
56184;DHT22;42086;53.170;6.980;2022-11-04T12:34:04;13.90;99.90
56184;DHT22;42086;53.170;6.980;2022-11-04T12:39:23;12.90;99.90
56184;DHT22;42086;53.170;6.980;2022-11-04T12:47:45;11.00;99.90
56184;DHT22;42086;53.170;6.980;2022-11-04T13:00:30;14.10;99.90
56184;DHT22;42086;53.170;6.980;2022-11-04T13:06:23;15.30;99.90
56184;DHT22;42086;53.170;6.980;2022-11-04T13:11:38;14.60;99.90
56184;DHT22;42086;53.170;6.980;2022-11-04T13:14:27;15.50;99.90
56184;DHT22;42086;53.170;6.980;2022-11-04T13:16:59;16.30;99.90
56184;DHT22;42086;53.170;6.980;2022-11-04T13:22:31;17.80;99.90
56184;DHT22;42086;53.170;6.980;2022-11-04T13:25:13;18.40;99.90
56184;DHT22;42086;53.170;6.980;2022-11-04T13:27:43;19.10;99.90
56184;DHT22;42086;53.170;6.980;2022-11-04T13:30:20;19.30;99.90
56184;DHT22;42086;53.170;6.980;2022-11-04T13:35:53;19.30;99.90
56184;DHT22;42086;53.170;6.980;2022-11-04T13:44:13;19.80;99.90
56184;DHT22;42086;53.170;6.980;2022-11-04T13:46:39;20.00;99.90
56184;DHT22;42086;53.170;6.980;2022-11-04T13:51:43;20.50;99.90
56184;DHT22;42086;53.170;6.980;2022-11-04T13:56:50;20.80;99.90
56184;DHT22;42086;53.170;6.980;2022-11-04T13:59:29;20.70;99.90
56184;DHT22;42086;53.170;6.980;2022-11-04T14:04:40;20.50;99.90
56184;DHT22;42086;53.170;6.980;2022-11-04T14:07:11;20.40;99.90
56184;DHT22;42086;53.170;6.980;2022-11-04T14:14:33;20.50;99.90
56184;DHT22;42086;53.170;6.980;2022-11-04T14:16:59;20.20;99.90
56184;DHT22;42086;53.170;6.980;2022-11-04T14:22:20;20.30;99.90
56184;DHT22;42086;53.170;6.980;2022-11-04T14:27:53;19.80;99.90
56184;DHT22;42086;53.170;6.980;2022-11-04T14:30:40;19.60;99.90
56184;DHT22;42086;53.170;6.980;2022-11-04T14:35:49;19.20;99.90
56184;DHT22;42086;53.170;6.980;2022-11-04T14:38:30;19.20;99.90
56184;DHT22;42086;53.170;6.980;2022-11-04T14:43:47;17.90;99.90
56184;DHT22;42086;53.170;6.980;2022-11-04T14:46:25;17.10;99.90
56184;DHT22;42086;53.170;6.980;2022-11-04T14:48:55;16.50;99.90
56184;DHT22;42086;53.170;6.980;2022-11-04T14:51:30;15.70;99.90
56184;DHT22;42086;53.170;6.980;2022-11-04T14:54:13;15.30;99.90
56184;DHT22;42086;53.170;6.980;2022-11-04T14:56:42;14.90;99.90
56184;DHT22;42086;53.170;6.980;2022-11-04T15:01:44;14.10;99.90
56184;DHT22;42086;53.170;6.980;2022-11-04T15:04:23;13.80;99.90
56184;DHT22;42086;53.170;6.980;2022-11-04T15:06:56;13.60;99.90
56184;DHT22;42086;53.170;6.980;2022-11-04T15:09:31;13.30;99.90
56184;DHT22;42086;53.170;6.980;2022-11-04T15:14:52;13.00;99.90
56184;DHT22;42086;53.170;6.980;2022-11-04T15:17:19;12.90;99.90
56184;DHT22;42086;53.170;6.980;2022-11-04T15:19:49;12.80;99.90
56184;DHT22;42086;53.170;6.980;2022-11-04T15:22:15;12.70;99.90
56184;DHT22;42086;53.170;6.980;2022-11-04T15:24:42;12.60;99.90
56184;DHT22;42086;53.170;6.980;2022-11-04T15:27:15;12.50;99.90
56184;DHT22;42086;53.170;6.980;2022-11-04T15:30:02;12.40;99.90
56184;DHT22;42086;53.170;6.980;2022-11-04T15:32:28;12.30;99.90
56184;DHT22;42086;53.170;6.980;2022-11-04T15:34:55;12.20;99.90
56184;DHT22;42086;53.170;6.980;2022-11-04T15:37:22;12.10;99.90
56184;DHT22;42086;53.170;6.980;2022-11-04T15:39:52;12.00;99.90
56184;DHT22;42086;53.170;6.980;2022-11-04T15:42:27;11.90;99.90
56184;DHT22;42086;53.170;6.980;2022-11-04T15:45:28;11.80;99.90
56184;DHT22;42086;53.170;6.980;2022-11-04T15:50:45;11.50;99.90
56184;DHT22;42086;53.170;6.980;2022-11-04T15:53:15;11.40;99.90
56184;DHT22;42086;53.170;6.980;2022-11-04T15:55:40;11.20;99.90
56184;DHT22;42086;53.170;6.980;2022-11-04T15:58:10;11.10;99.90
56184;DHT22;42086;53.170;6.980;2022-11-04T16:00:38;10.90;99.90
56184;DHT22;42086;53.170;6.980;2022-11-04T16:03:04;10.80;99.90
56184;DHT22;42086;53.170;6.980;2022-11-04T16:05:35;10.70;99.90
56184;DHT22;42086;53.170;6.980;2022-11-04T16:08:22;10.60;99.90
56184;DHT22;42086;53.170;6.980;2022-11-04T16:10:49;10.50;99.90
56184;DHT22;42086;53.170;6.980;2022-11-04T16:18:35;10.30;99.90
56184;DHT22;42086;53.170;6.980;2022-11-04T16:21:27;10.30;99.90
56184;DHT22;42086;53.170;6.980;2022-11-04T16:24:15;10.10;99.90
56184;DHT22;42086;53.170;6.980;2022-11-04T16:26:43;10.10;99.90
56184;DHT22;42086;53.170;6.980;2022-11-04T16:29:19;9.90;99.90
56184;DHT22;42086;53.170;6.980;2022-11-04T16:32:13;9.80;99.90
56184;DHT22;42086;53.170;6.980;2022-11-04T16:34:41;9.70;99.90
56184;DHT22;42086;53.170;6.980;2022-11-04T16:37:07;9.70;99.90
56184;DHT22;42086;53.170;6.980;2022-11-04T16:39:33;9.70;99.90
56184;DHT22;42086;53.170;6.980;2022-11-04T16:41:59;9.60;99.90
56184;DHT22;42086;53.170;6.980;2022-11-04T16:44:25;9.50;99.90
56184;DHT22;42086;53.170;6.980;2022-11-04T16:46:51;9.50;99.90
56184;DHT22;42086;53.170;6.980;2022-11-04T16:49:19;9.50;99.90
56184;DHT22;42086;53.170;6.980;2022-11-04T16:51:48;9.50;99.90
56184;DHT22;42086;53.170;6.980;2022-11-04T16:54:15;9.40;99.90
56184;DHT22;42086;53.170;6.980;2022-11-04T16:56:40;9.30;99.90
56184;DHT22;42086;53.170;6.980;2022-11-04T16:59:08;9.30;99.90
56184;DHT22;42086;53.170;6.980;2022-11-04T17:01:36;9.30;99.90
56184;DHT22;42086;53.170;6.980;2022-11-04T17:04:04;9.10;99.90
56184;DHT22;42086;53.170;6.980;2022-11-04T17:06:31;9.00;99.90
56184;DHT22;42086;53.170;6.980;2022-11-04T17:08:57;9.00;99.90
56184;DHT22;42086;53.170;6.980;2022-11-04T17:11:23;9.00;99.90
56184;DHT22;42086;53.170;6.980;2022-11-04T17:13:49;9.00;99.90
56184;DHT22;42086;53.170;6.980;2022-11-04T17:16:14;9.00;99.90
56184;DHT22;42086;53.170;6.980;2022-11-04T17:18:40;9.00;99.90
56184;DHT22;42086;53.170;6.980;2022-11-04T17:21:07;9.00;99.90
56184;DHT22;42086;53.170;6.980;2022-11-04T17:23:34;9.00;99.90
56184;DHT22;42086;53.170;6.980;2022-11-04T17:26:00;8.90;99.90
56184;DHT22;42086;53.170;6.980;2022-11-04T17:28:26;8.80;99.90
56184;DHT22;42086;53.170;6.980;2022-11-04T17:30:52;8.80;99.90
56184;DHT22;42086;53.170;6.980;2022-11-04T17:33:18;8.70;99.90
56184;DHT22;42086;53.170;6.980;2022-11-04T17:35:46;8.80;99.90
56184;DHT22;42086;53.170;6.980;2022-11-04T17:38:16;8.80;99.90
56184;DHT22;42086;53.170;6.980;2022-11-04T17:40:42;8.80;99.90
56184;DHT22;42086;53.170;6.980;2022-11-04T17:43:26;8.80;99.90
56184;DHT22;42086;53.170;6.980;2022-11-04T17:46:12;8.80;99.90
56184;DHT22;42086;53.170;6.980;2022-11-04T17:48:56;8.80;99.90
56184;DHT22;42086;53.170;6.980;2022-11-04T17:51:22;8.80;99.90
56184;DHT22;42086;53.170;6.980;2022-11-04T17:53:48;8.80;99.90
56184;DHT22;42086;53.170;6.980;2022-11-04T17:56:15;8.80;99.90
56184;DHT22;42086;53.170;6.980;2022-11-04T17:58:41;8.80;99.90
56184;DHT22;42086;53.170;6.980;2022-11-04T18:01:07;8.80;99.90
56184;DHT22;42086;53.170;6.980;2022-11-04T18:03:33;8.80;99.90
56184;DHT22;42086;53.170;6.980;2022-11-04T18:06:00;8.80;99.90
56184;DHT22;42086;53.170;6.980;2022-11-04T18:08:26;8.70;99.90
56184;DHT22;42086;53.170;6.980;2022-11-04T18:11:00;8.70;99.90
56184;DHT22;42086;53.170;6.980;2022-11-04T18:13:26;8.60;99.90
56184;DHT22;42086;53.170;6.980;2022-11-04T18:15:52;8.60;99.90
56184;DHT22;42086;53.170;6.980;2022-11-04T18:18:19;8.60;99.90
56184;DHT22;42086;53.170;6.980;2022-11-04T18:20:45;8.50;99.90
56184;DHT22;42086;53.170;6.980;2022-11-04T18:23:11;8.40;99.90
56184;DHT22;42086;53.170;6.980;2022-11-04T18:25:41;8.40;99.90
56184;DHT22;42086;53.170;6.980;2022-11-04T18:28:10;8.60;99.90
56184;DHT22;42086;53.170;6.980;2022-11-04T18:30:39;8.20;99.90
56184;DHT22;42086;53.170;6.980;2022-11-04T18:33:05;8.20;99.90
56184;DHT22;42086;53.170;6.980;2022-11-04T18:35:33;8.10;99.90
56184;DHT22;42086;53.170;6.980;2022-11-04T18:37:58;8.10;99.90
56184;DHT22;42086;53.170;6.980;2022-11-04T18:40:24;8.00;99.90
56184;DHT22;42086;53.170;6.980;2022-11-04T18:42:50;8.10;99.90
56184;DHT22;42086;53.170;6.980;2022-11-04T18:45:16;8.10;99.90
56184;DHT22;42086;53.170;6.980;2022-11-04T18:47:42;8.10;99.90
56184;DHT22;42086;53.170;6.980;2022-11-04T18:50:09;8.10;99.90
56184;DHT22;42086;53.170;6.980;2022-11-04T18:52:34;8.00;99.90
56184;DHT22;42086;53.170;6.980;2022-11-04T18:55:00;8.00;99.90